sensor_id;sensor_type;location;lat;lon;timestamp;P1;durP1;ratioP1;P2;durP2;ratioP2
43986;SDS011;29650;47.378;8.300;2024-02-28T00:02:01;25.17;;;14.30;;
43986;SDS011;29650;47.378;8.300;2024-02-28T00:04:29;25.08;;;15.40;;
43986;SDS011;29650;47.378;8.300;2024-02-28T00:06:56;28.55;;;14.25;;
43986;SDS011;29650;47.378;8.300;2024-02-28T00:09:23;22.95;;;13.50;;
43986;SDS011;29650;47.378;8.300;2024-02-28T00:11:50;27.83;;;14.25;;
43986;SDS011;29650;47.378;8.300;2024-02-28T00:14:17;23.52;;;14.02;;
43986;SDS011;29650;47.378;8.300;2024-02-28T00:16:45;23.88;;;13.75;;
43986;SDS011;29650;47.378;8.300;2024-02-28T00:19:13;22.83;;;13.55;;
43986;SDS011;29650;47.378;8.300;2024-02-28T00:21:41;25.02;;;14.55;;
43986;SDS011;29650;47.378;8.300;2024-02-28T00:24:08;23.92;;;14.55;;
43986;SDS011;29650;47.378;8.300;2024-02-28T00:26:35;24.80;;;15.07;;
43986;SDS011;29650;47.378;8.300;2024-02-28T00:29:02;21.92;;;14.35;;
43986;SDS011;29650;47.378;8.300;2024-02-28T00:31:29;29.38;;;14.32;;
43986;SDS011;29650;47.378;8.300;2024-02-28T00:33:56;23.73;;;14.35;;
43986;SDS011;29650;47.378;8.300;2024-02-28T00:36:23;24.27;;;14.68;;
43986;SDS011;29650;47.378;8.300;2024-02-28T00:38:51;24.25;;;14.43;;
43986;SDS011;29650;47.378;8.300;2024-02-28T00:41:18;25.67;;;14.40;;
43986;SDS011;29650;47.378;8.300;2024-02-28T00:43:45;26.23;;;14.88;;
43986;SDS011;29650;47.378;8.300;2024-02-28T00:46:12;20.75;;;13.65;;
43986;SDS011;29650;47.378;8.300;2024-02-28T00:48:39;26.58;;;13.80;;
43986;SDS011;29650;47.378;8.300;2024-02-28T00:51:06;21.10;;;13.57;;
43986;SDS011;29650;47.378;8.300;2024-02-28T00:53:33;24.42;;;14.10;;
43986;SDS011;29650;47.378;8.300;2024-02-28T00:56:02;22.67;;;13.30;;
43986;SDS011;29650;47.378;8.300;2024-02-28T00:58:29;24.58;;;14.00;;
43986;SDS011;29650;47.378;8.300;2024-02-28T01:00:56;23.27;;;14.13;;
43986;SDS011;29650;47.378;8.300;2024-02-28T01:03:23;22.77;;;13.43;;
43986;SDS011;29650;47.378;8.300;2024-02-28T01:05:50;27.42;;;15.30;;
43986;SDS011;29650;47.378;8.300;2024-02-28T01:08:17;26.10;;;14.13;;
43986;SDS011;29650;47.378;8.300;2024-02-28T01:10:44;25.67;;;15.07;;
43986;SDS011;29650;47.378;8.300;2024-02-28T01:13:13;26.85;;;14.20;;
43986;SDS011;29650;47.378;8.300;2024-02-28T01:15:40;30.55;;;15.35;;
43986;SDS011;29650;47.378;8.300;2024-02-28T01:18:07;29.88;;;16.85;;
43986;SDS011;29650;47.378;8.300;2024-02-28T01:20:35;27.63;;;14.23;;
43986;SDS011;29650;47.378;8.300;2024-02-28T01:23:02;25.90;;;14.98;;
43986;SDS011;29650;47.378;8.300;2024-02-28T01:25:29;26.55;;;14.95;;
43986;SDS011;29650;47.378;8.300;2024-02-28T01:27:56;24.88;;;14.43;;
43986;SDS011;29650;47.378;8.300;2024-02-28T01:30:25;23.98;;;14.38;;
43986;SDS011;29650;47.378;8.300;2024-02-28T01:32:52;26.33;;;15.23;;
43986;SDS011;29650;47.378;8.300;2024-02-28T01:35:19;27.58;;;15.65;;
43986;SDS011;29650;47.378;8.300;2024-02-28T01:37:47;24.70;;;14.75;;
43986;SDS011;29650;47.378;8.300;2024-02-28T01:40:14;28.77;;;14.95;;
43986;SDS011;29650;47.378;8.300;2024-02-28T01:42:41;26.35;;;15.50;;
43986;SDS011;29650;47.378;8.300;2024-02-28T01:45:08;24.50;;;14.63;;
43986;SDS011;29650;47.378;8.300;2024-02-28T01:47:40;28.13;;;14.80;;
43986;SDS011;29650;47.378;8.300;2024-02-28T01:50:08;22.38;;;14.35;;
43986;SDS011;29650;47.378;8.300;2024-02-28T01:52:37;30.13;;;14.48;;
43986;SDS011;29650;47.378;8.300;2024-02-28T01:55:05;27.27;;;15.70;;
43986;SDS011;29650;47.378;8.300;2024-02-28T01:57:32;27.52;;;15.38;;
43986;SDS011;29650;47.378;8.300;2024-02-28T02:00:02;26.17;;;15.25;;
43986;SDS011;29650;47.378;8.300;2024-02-28T02:02:31;28.80;;;14.88;;
43986;SDS011;29650;47.378;8.300;2024-02-28T02:04:59;26.33;;;15.40;;
43986;SDS011;29650;47.378;8.300;2024-02-28T02:07:26;25.60;;;14.90;;
43986;SDS011;29650;47.378;8.300;2024-02-28T02:09:53;27.13;;;15.50;;
43986;SDS011;29650;47.378;8.300;2024-02-28T02:12:21;24.55;;;14.13;;
43986;SDS011;29650;47.378;8.300;2024-02-28T02:14:48;26.50;;;15.18;;
43986;SDS011;29650;47.378;8.300;2024-02-28T02:17:15;28.00;;;14.13;;
43986;SDS011;29650;47.378;8.300;2024-02-28T02:19:42;26.38;;;14.98;;
43986;SDS011;29650;47.378;8.300;2024-02-28T02:22:10;24.00;;;14.25;;
43986;SDS011;29650;47.378;8.300;2024-02-28T02:24:41;25.10;;;14.48;;
43986;SDS011;29650;47.378;8.300;2024-02-28T02:27:08;28.70;;;15.48;;
43986;SDS011;29650;47.378;8.300;2024-02-28T02:29:35;31.73;;;16.55;;
43986;SDS011;29650;47.378;8.300;2024-02-28T02:32:02;26.67;;;15.15;;
43986;SDS011;29650;47.378;8.300;2024-02-28T02:34:29;25.65;;;15.65;;
43986;SDS011;29650;47.378;8.300;2024-02-28T02:36:57;25.65;;;14.93;;
43986;SDS011;29650;47.378;8.300;2024-02-28T02:39:23;26.17;;;14.60;;
43986;SDS011;29650;47.378;8.300;2024-02-28T02:41:52;25.85;;;14.38;;
43986;SDS011;29650;47.378;8.300;2024-02-28T02:44:19;24.92;;;14.30;;
43986;SDS011;29650;47.378;8.300;2024-02-28T02:46:46;26.58;;;14.80;;
43986;SDS011;29650;47.378;8.300;2024-02-28T02:49:13;27.10;;;15.60;;
43986;SDS011;29650;47.378;8.300;2024-02-28T02:51:40;24.17;;;15.18;;
43986;SDS011;29650;47.378;8.300;2024-02-28T02:54:08;24.05;;;14.32;;
43986;SDS011;29650;47.378;8.300;2024-02-28T02:56:35;26.17;;;14.40;;
43986;SDS011;29650;47.378;8.300;2024-02-28T02:59:03;26.45;;;14.93;;
43986;SDS011;29650;47.378;8.300;2024-02-28T03:01:30;23.23;;;13.18;;
43986;SDS011;29650;47.378;8.300;2024-02-28T03:03:57;29.27;;;14.73;;
43986;SDS011;29650;47.378;8.300;2024-02-28T03:06:24;28.00;;;14.63;;
43986;SDS011;29650;47.378;8.300;2024-02-28T03:08:51;25.42;;;14.15;;
43986;SDS011;29650;47.378;8.300;2024-02-28T03:11:18;26.25;;;13.70;;
43986;SDS011;29650;47.378;8.300;2024-02-28T03:13:45;25.17;;;14.20;;
43986;SDS011;29650;47.378;8.300;2024-02-28T03:16:13;26.40;;;14.13;;
43986;SDS011;29650;47.378;8.300;2024-02-28T03:18:40;23.05;;;13.77;;
43986;SDS011;29650;47.378;8.300;2024-02-28T03:21:07;27.42;;;14.57;;
43986;SDS011;29650;47.378;8.300;2024-02-28T03:23:34;25.17;;;13.93;;
43986;SDS011;29650;47.378;8.300;2024-02-28T03:26:01;22.92;;;13.73;;
43986;SDS011;29650;47.378;8.300;2024-02-28T03:28:29;24.58;;;13.45;;
43986;SDS011;29650;47.378;8.300;2024-02-28T03:30:55;23.42;;;14.30;;
43986;SDS011;29650;47.378;8.300;2024-02-28T03:33:24;27.80;;;15.35;;
43986;SDS011;29650;47.378;8.300;2024-02-28T03:35:51;22.33;;;13.23;;
43986;SDS011;29650;47.378;8.300;2024-02-28T03:38:18;24.42;;;14.52;;
43986;SDS011;29650;47.378;8.300;2024-02-28T03:40:44;24.48;;;13.75;;
43986;SDS011;29650;47.378;8.300;2024-02-28T03:43:11;21.80;;;13.27;;
43986;SDS011;29650;47.378;8.300;2024-02-28T03:45:39;22.85;;;12.57;;
43986;SDS011;29650;47.378;8.300;2024-02-28T03:48:06;24.65;;;13.65;;
43986;SDS011;29650;47.378;8.300;2024-02-28T03:50:34;23.20;;;11.90;;
43986;SDS011;29650;47.378;8.300;2024-02-28T03:53:02;26.40;;;12.75;;
43986;SDS011;29650;47.378;8.300;2024-02-28T03:55:30;25.15;;;13.23;;
43986;SDS011;29650;47.378;8.300;2024-02-28T03:57:57;22.27;;;13.23;;
43986;SDS011;29650;47.378;8.300;2024-02-28T04:00:24;28.23;;;12.93;;
43986;SDS011;29650;47.378;8.300;2024-02-28T04:02:51;22.20;;;13.10;;
43986;SDS011;29650;47.378;8.300;2024-02-28T04:05:19;23.38;;;13.05;;
43986;SDS011;29650;47.378;8.300;2024-02-28T04:07:47;23.40;;;12.27;;
43986;SDS011;29650;47.378;8.300;2024-02-28T04:10:14;24.15;;;14.52;;
43986;SDS011;29650;47.378;8.300;2024-02-28T04:12:42;23.35;;;13.63;;
43986;SDS011;29650;47.378;8.300;2024-02-28T04:15:10;25.35;;;13.98;;
43986;SDS011;29650;47.378;8.300;2024-02-28T04:17:38;22.70;;;13.38;;
43986;SDS011;29650;47.378;8.300;2024-02-28T04:20:07;22.05;;;12.43;;
43986;SDS011;29650;47.378;8.300;2024-02-28T04:22:35;22.65;;;13.05;;
43986;SDS011;29650;47.378;8.300;2024-02-28T04:25:03;26.38;;;14.63;;
43986;SDS011;29650;47.378;8.300;2024-02-28T04:27:30;25.02;;;12.93;;
43986;SDS011;29650;47.378;8.300;2024-02-28T04:29:57;24.40;;;13.73;;
43986;SDS011;29650;47.378;8.300;2024-02-28T04:32:24;24.95;;;13.43;;
43986;SDS011;29650;47.378;8.300;2024-02-28T04:34:51;21.52;;;13.10;;
43986;SDS011;29650;47.378;8.300;2024-02-28T04:37:18;24.52;;;13.43;;
43986;SDS011;29650;47.378;8.300;2024-02-28T04:39:45;25.95;;;15.10;;
43986;SDS011;29650;47.378;8.300;2024-02-28T04:42:14;25.13;;;13.75;;
43986;SDS011;29650;47.378;8.300;2024-02-28T04:44:42;23.70;;;13.20;;
43986;SDS011;29650;47.378;8.300;2024-02-28T04:47:09;26.92;;;13.85;;
43986;SDS011;29650;47.378;8.300;2024-02-28T04:49:36;23.55;;;13.60;;
43986;SDS011;29650;47.378;8.300;2024-02-28T04:52:04;23.38;;;13.30;;
43986;SDS011;29650;47.378;8.300;2024-02-28T04:54:31;22.58;;;13.55;;
43986;SDS011;29650;47.378;8.300;2024-02-28T04:56:58;22.75;;;13.15;;
43986;SDS011;29650;47.378;8.300;2024-02-28T04:59:27;26.63;;;13.60;;
43986;SDS011;29650;47.378;8.300;2024-02-28T05:01:54;23.92;;;13.27;;
43986;SDS011;29650;47.378;8.300;2024-02-28T05:04:21;23.02;;;13.00;;
43986;SDS011;29650;47.378;8.300;2024-02-28T05:06:48;22.40;;;12.77;;
43986;SDS011;29650;47.378;8.300;2024-02-28T05:09:15;25.55;;;13.88;;
43986;SDS011;29650;47.378;8.300;2024-02-28T05:11:43;22.55;;;13.75;;
43986;SDS011;29650;47.378;8.300;2024-02-28T05:14:10;24.10;;;12.48;;
43986;SDS011;29650;47.378;8.300;2024-02-28T05:16:38;23.33;;;13.88;;
43986;SDS011;29650;47.378;8.300;2024-02-28T05:19:05;25.08;;;13.10;;
43986;SDS011;29650;47.378;8.300;2024-02-28T05:21:38;20.92;;;12.48;;
43986;SDS011;29650;47.378;8.300;2024-02-28T05:24:06;22.95;;;12.57;;
43986;SDS011;29650;47.378;8.300;2024-02-28T05:26:34;26.88;;;12.63;;
43986;SDS011;29650;47.378;8.300;2024-02-28T05:29:01;24.92;;;12.40;;
43986;SDS011;29650;47.378;8.300;2024-02-28T05:31:29;20.88;;;11.98;;
43986;SDS011;29650;47.378;8.300;2024-02-28T05:33:59;19.43;;;12.23;;
43986;SDS011;29650;47.378;8.300;2024-02-28T05:36:27;21.70;;;12.23;;
43986;SDS011;29650;47.378;8.300;2024-02-28T05:38:55;19.08;;;11.45;;
43986;SDS011;29650;47.378;8.300;2024-02-28T05:41:23;19.13;;;10.60;;
43986;SDS011;29650;47.378;8.300;2024-02-28T05:43:50;19.52;;;11.32;;
43986;SDS011;29650;47.378;8.300;2024-02-28T05:46:18;18.67;;;10.60;;
43986;SDS011;29650;47.378;8.300;2024-02-28T05:48:45;20.75;;;11.30;;
43986;SDS011;29650;47.378;8.300;2024-02-28T05:51:14;16.30;;;9.63;;
43986;SDS011;29650;47.378;8.300;2024-02-28T05:53:41;19.50;;;11.02;;
43986;SDS011;29650;47.378;8.300;2024-02-28T05:56:09;23.25;;;11.25;;
43986;SDS011;29650;47.378;8.300;2024-02-28T05:58:39;17.45;;;10.43;;
43986;SDS011;29650;47.378;8.300;2024-02-28T06:01:06;19.15;;;10.20;;
43986;SDS011;29650;47.378;8.300;2024-02-28T06:03:34;17.92;;;10.90;;
43986;SDS011;29650;47.378;8.300;2024-02-28T06:06:01;18.27;;;10.98;;
43986;SDS011;29650;47.378;8.300;2024-02-28T06:08:32;18.23;;;9.90;;
43986;SDS011;29650;47.378;8.300;2024-02-28T06:10:59;19.98;;;10.13;;
43986;SDS011;29650;47.378;8.300;2024-02-28T06:13:26;19.45;;;9.90;;
43986;SDS011;29650;47.378;8.300;2024-02-28T06:15:54;19.08;;;10.10;;
43986;SDS011;29650;47.378;8.300;2024-02-28T06:18:21;18.95;;;9.98;;
43986;SDS011;29650;47.378;8.300;2024-02-28T06:20:51;20.27;;;10.05;;
43986;SDS011;29650;47.378;8.300;2024-02-28T06:23:18;21.98;;;10.10;;
43986;SDS011;29650;47.378;8.300;2024-02-28T06:25:46;17.65;;;9.93;;
43986;SDS011;29650;47.378;8.300;2024-02-28T06:28:13;20.77;;;10.53;;
43986;SDS011;29650;47.378;8.300;2024-02-28T06:30:41;17.38;;;10.77;;
43986;SDS011;29650;47.378;8.300;2024-02-28T06:33:09;19.95;;;10.52;;
43986;SDS011;29650;47.378;8.300;2024-02-28T06:35:36;17.52;;;9.90;;
43986;SDS011;29650;47.378;8.300;2024-02-28T06:38:03;18.08;;;9.15;;
43986;SDS011;29650;47.378;8.300;2024-02-28T06:40:30;18.65;;;10.38;;
43986;SDS011;29650;47.378;8.300;2024-02-28T06:42:58;17.08;;;10.15;;
43986;SDS011;29650;47.378;8.300;2024-02-28T06:45:25;16.67;;;10.00;;
43986;SDS011;29650;47.378;8.300;2024-02-28T06:47:52;16.35;;;9.50;;
43986;SDS011;29650;47.378;8.300;2024-02-28T06:50:19;15.32;;;9.45;;
43986;SDS011;29650;47.378;8.300;2024-02-28T06:52:46;17.13;;;9.43;;
43986;SDS011;29650;47.378;8.300;2024-02-28T06:55:13;16.00;;;9.13;;
43986;SDS011;29650;47.378;8.300;2024-02-28T06:57:40;19.73;;;10.30;;
43986;SDS011;29650;47.378;8.300;2024-02-28T07:00:09;17.58;;;10.10;;
43986;SDS011;29650;47.378;8.300;2024-02-28T07:02:37;17.83;;;9.65;;
43986;SDS011;29650;47.378;8.300;2024-02-28T07:05:04;17.27;;;10.38;;
43986;SDS011;29650;47.378;8.300;2024-02-28T07:07:32;17.55;;;10.05;;
43986;SDS011;29650;47.378;8.300;2024-02-28T07:09:59;17.27;;;9.60;;
43986;SDS011;29650;47.378;8.300;2024-02-28T07:12:26;18.90;;;11.10;;
43986;SDS011;29650;47.378;8.300;2024-02-28T07:14:53;16.23;;;9.98;;
43986;SDS011;29650;47.378;8.300;2024-02-28T07:17:21;17.15;;;10.45;;
43986;SDS011;29650;47.378;8.300;2024-02-28T07:19:48;17.02;;;10.43;;
43986;SDS011;29650;47.378;8.300;2024-02-28T07:22:16;18.55;;;11.18;;
43986;SDS011;29650;47.378;8.300;2024-02-28T07:24:43;24.30;;;12.68;;
43986;SDS011;29650;47.378;8.300;2024-02-28T07:27:10;19.38;;;11.15;;
43986;SDS011;29650;47.378;8.300;2024-02-28T07:29:37;20.48;;;11.35;;
43986;SDS011;29650;47.378;8.300;2024-02-28T07:32:04;19.73;;;9.80;;
43986;SDS011;29650;47.378;8.300;2024-02-28T07:34:33;13.65;;;8.43;;
43986;SDS011;29650;47.378;8.300;2024-02-28T07:37:00;14.80;;;8.95;;
43986;SDS011;29650;47.378;8.300;2024-02-28T07:39:27;17.33;;;8.95;;
43986;SDS011;29650;47.378;8.300;2024-02-28T07:41:54;16.42;;;9.52;;
43986;SDS011;29650;47.378;8.300;2024-02-28T07:44:21;19.40;;;9.43;;
43986;SDS011;29650;47.378;8.300;2024-02-28T07:46:48;15.90;;;8.75;;
43986;SDS011;29650;47.378;8.300;2024-02-28T07:49:15;16.10;;;9.80;;
43986;SDS011;29650;47.378;8.300;2024-02-28T07:51:44;16.95;;;9.13;;
43986;SDS011;29650;47.378;8.300;2024-02-28T07:54:11;18.23;;;9.67;;
43986;SDS011;29650;47.378;8.300;2024-02-28T07:56:38;15.68;;;9.27;;
43986;SDS011;29650;47.378;8.300;2024-02-28T07:59:04;16.15;;;9.05;;
43986;SDS011;29650;47.378;8.300;2024-02-28T08:01:31;16.67;;;9.45;;
43986;SDS011;29650;47.378;8.300;2024-02-28T08:03:58;14.23;;;9.13;;
43986;SDS011;29650;47.378;8.300;2024-02-28T08:06:27;19.10;;;10.20;;
43986;SDS011;29650;47.378;8.300;2024-02-28T08:08:55;18.80;;;9.70;;
43986;SDS011;29650;47.378;8.300;2024-02-28T08:11:22;16.60;;;9.70;;
43986;SDS011;29650;47.378;8.300;2024-02-28T08:13:50;21.92;;;10.10;;
43986;SDS011;29650;47.378;8.300;2024-02-28T08:16:17;16.27;;;9.15;;
43986;SDS011;29650;47.378;8.300;2024-02-28T08:18:44;17.05;;;9.35;;
43986;SDS011;29650;47.378;8.300;2024-02-28T08:21:11;17.50;;;9.20;;
43986;SDS011;29650;47.378;8.300;2024-02-28T08:23:38;17.73;;;9.27;;
43986;SDS011;29650;47.378;8.300;2024-02-28T08:26:06;20.38;;;10.18;;
43986;SDS011;29650;47.378;8.300;2024-02-28T08:28:33;15.63;;;9.55;;
43986;SDS011;29650;47.378;8.300;2024-02-28T08:30:59;17.33;;;9.23;;
43986;SDS011;29650;47.378;8.300;2024-02-28T08:33:26;16.02;;;8.90;;
43986;SDS011;29650;47.378;8.300;2024-02-28T08:35:53;15.77;;;9.50;;
43986;SDS011;29650;47.378;8.300;2024-02-28T08:38:20;17.15;;;9.43;;
43986;SDS011;29650;47.378;8.300;2024-02-28T08:40:47;16.63;;;8.82;;
43986;SDS011;29650;47.378;8.300;2024-02-28T08:43:15;17.65;;;10.07;;
43986;SDS011;29650;47.378;8.300;2024-02-28T08:45:42;16.20;;;9.43;;
43986;SDS011;29650;47.378;8.300;2024-02-28T08:48:09;16.63;;;10.32;;
43986;SDS011;29650;47.378;8.300;2024-02-28T08:50:36;16.17;;;9.07;;
43986;SDS011;29650;47.378;8.300;2024-02-28T08:53:03;18.77;;;9.60;;
43986;SDS011;29650;47.378;8.300;2024-02-28T08:55:30;17.08;;;9.48;;
43986;SDS011;29650;47.378;8.300;2024-02-28T08:57:57;16.58;;;9.70;;
43986;SDS011;29650;47.378;8.300;2024-02-28T09:00:25;17.00;;;10.15;;
43986;SDS011;29650;47.378;8.300;2024-02-28T09:02:52;13.55;;;8.73;;
43986;SDS011;29650;47.378;8.300;2024-02-28T09:05:19;17.55;;;9.05;;
43986;SDS011;29650;47.378;8.300;2024-02-28T09:07:46;16.20;;;9.27;;
43986;SDS011;29650;47.378;8.300;2024-02-28T09:10:16;17.98;;;10.10;;
43986;SDS011;29650;47.378;8.300;2024-02-28T09:12:46;19.42;;;9.95;;
43986;SDS011;29650;47.378;8.300;2024-02-28T09:15:13;15.63;;;9.13;;
43986;SDS011;29650;47.378;8.300;2024-02-28T09:17:42;15.90;;;9.38;;
43986;SDS011;29650;47.378;8.300;2024-02-28T09:20:10;15.90;;;8.55;;
43986;SDS011;29650;47.378;8.300;2024-02-28T09:22:38;17.65;;;10.10;;
43986;SDS011;29650;47.378;8.300;2024-02-28T09:25:05;17.25;;;9.00;;
43986;SDS011;29650;47.378;8.300;2024-02-28T09:27:34;15.23;;;9.07;;
43986;SDS011;29650;47.378;8.300;2024-02-28T09:30:01;18.20;;;9.77;;
43986;SDS011;29650;47.378;8.300;2024-02-28T09:32:28;16.52;;;9.48;;
43986;SDS011;29650;47.378;8.300;2024-02-28T09:34:57;18.63;;;10.65;;
43986;SDS011;29650;47.378;8.300;2024-02-28T09:37:24;18.42;;;9.73;;
43986;SDS011;29650;47.378;8.300;2024-02-28T09:39:50;16.00;;;8.75;;
43986;SDS011;29650;47.378;8.300;2024-02-28T09:42:18;17.30;;;8.68;;
43986;SDS011;29650;47.378;8.300;2024-02-28T09:44:45;18.15;;;9.48;;
43986;SDS011;29650;47.378;8.300;2024-02-28T09:47:13;17.42;;;9.48;;
43986;SDS011;29650;47.378;8.300;2024-02-28T09:49:41;17.15;;;9.05;;
43986;SDS011;29650;47.378;8.300;2024-02-28T09:52:09;18.90;;;11.30;;
43986;SDS011;29650;47.378;8.300;2024-02-28T09:54:36;21.08;;;10.10;;
43986;SDS011;29650;47.378;8.300;2024-02-28T09:57:04;16.90;;;9.27;;
43986;SDS011;29650;47.378;8.300;2024-02-28T09:59:31;19.02;;;9.85;;
43986;SDS011;29650;47.378;8.300;2024-02-28T10:02:01;17.52;;;9.95;;
43986;SDS011;29650;47.378;8.300;2024-02-28T10:04:29;18.70;;;10.73;;
43986;SDS011;29650;47.378;8.300;2024-02-28T10:06:57;21.83;;;11.52;;
43986;SDS011;29650;47.378;8.300;2024-02-28T10:09:25;19.63;;;10.90;;
43986;SDS011;29650;47.378;8.300;2024-02-28T10:11:52;17.52;;;9.57;;
43986;SDS011;29650;47.378;8.300;2024-02-28T10:14:19;18.52;;;9.82;;
43986;SDS011;29650;47.378;8.300;2024-02-28T10:16:46;18.60;;;10.65;;
43986;SDS011;29650;47.378;8.300;2024-02-28T10:19:14;16.20;;;10.02;;
43986;SDS011;29650;47.378;8.300;2024-02-28T10:21:41;19.88;;;10.80;;
43986;SDS011;29650;47.378;8.300;2024-02-28T10:24:09;18.02;;;9.10;;
43986;SDS011;29650;47.378;8.300;2024-02-28T10:26:43;16.48;;;9.95;;
43986;SDS011;29650;47.378;8.300;2024-02-28T10:29:11;18.27;;;10.55;;
43986;SDS011;29650;47.378;8.300;2024-02-28T10:31:38;18.70;;;9.48;;
43986;SDS011;29650;47.378;8.300;2024-02-28T10:34:05;22.05;;;11.05;;
43986;SDS011;29650;47.378;8.300;2024-02-28T10:36:34;17.85;;;10.65;;
43986;SDS011;29650;47.378;8.300;2024-02-28T10:39:03;19.45;;;10.95;;
43986;SDS011;29650;47.378;8.300;2024-02-28T10:41:32;24.83;;;10.82;;
43986;SDS011;29650;47.378;8.300;2024-02-28T10:44:01;17.58;;;11.30;;
43986;SDS011;29650;47.378;8.300;2024-02-28T10:46:28;17.00;;;10.55;;
43986;SDS011;29650;47.378;8.300;2024-02-28T10:48:56;21.17;;;11.55;;
43986;SDS011;29650;47.378;8.300;2024-02-28T10:51:24;22.80;;;11.90;;
43986;SDS011;29650;47.378;8.300;2024-02-28T10:53:54;22.08;;;11.82;;
43986;SDS011;29650;47.378;8.300;2024-02-28T10:56:28;20.08;;;11.48;;
43986;SDS011;29650;47.378;8.300;2024-02-28T10:58:56;19.15;;;10.77;;
43986;SDS011;29650;47.378;8.300;2024-02-28T11:01:26;20.63;;;10.90;;
43986;SDS011;29650;47.378;8.300;2024-02-28T11:03:53;21.20;;;11.02;;
43986;SDS011;29650;47.378;8.300;2024-02-28T11:06:21;21.48;;;10.90;;
43986;SDS011;29650;47.378;8.300;2024-02-28T11:08:49;21.98;;;12.38;;
43986;SDS011;29650;47.378;8.300;2024-02-28T11:11:19;17.00;;;10.70;;
43986;SDS011;29650;47.378;8.300;2024-02-28T11:13:53;17.77;;;10.48;;
43986;SDS011;29650;47.378;8.300;2024-02-28T11:16:31;24.20;;;11.82;;
43986;SDS011;29650;47.378;8.300;2024-02-28T11:18:59;20.85;;;11.68;;
43986;SDS011;29650;47.378;8.300;2024-02-28T11:21:29;21.90;;;11.30;;
43986;SDS011;29650;47.378;8.300;2024-02-28T11:23:59;21.33;;;12.27;;
43986;SDS011;29650;47.378;8.300;2024-02-28T11:26:26;22.75;;;11.73;;
43986;SDS011;29650;47.378;8.300;2024-02-28T11:28:54;23.58;;;13.18;;
43986;SDS011;29650;47.378;8.300;2024-02-28T11:31:21;21.35;;;11.90;;
43986;SDS011;29650;47.378;8.300;2024-02-28T11:33:49;22.60;;;12.57;;
43986;SDS011;29650;47.378;8.300;2024-02-28T11:36:16;20.98;;;11.82;;
43986;SDS011;29650;47.378;8.300;2024-02-28T11:38:44;23.48;;;12.60;;
43986;SDS011;29650;47.378;8.300;2024-02-28T11:41:11;24.45;;;12.32;;
43986;SDS011;29650;47.378;8.300;2024-02-28T11:43:38;21.90;;;12.20;;
43986;SDS011;29650;47.378;8.300;2024-02-28T11:46:07;22.45;;;12.40;;
43986;SDS011;29650;47.378;8.300;2024-02-28T11:48:35;21.48;;;11.73;;
43986;SDS011;29650;47.378;8.300;2024-02-28T11:51:04;25.38;;;12.35;;
43986;SDS011;29650;47.378;8.300;2024-02-28T11:53:31;23.57;;;12.90;;
43986;SDS011;29650;47.378;8.300;2024-02-28T11:55:57;25.45;;;12.45;;
43986;SDS011;29650;47.378;8.300;2024-02-28T11:58:25;21.35;;;11.05;;
43986;SDS011;29650;47.378;8.300;2024-02-28T12:00:52;22.38;;;12.65;;
43986;SDS011;29650;47.378;8.300;2024-02-28T12:03:22;21.58;;;12.35;;
43986;SDS011;29650;47.378;8.300;2024-02-28T12:05:50;23.77;;;12.75;;
43986;SDS011;29650;47.378;8.300;2024-02-28T12:08:19;21.38;;;12.35;;
43986;SDS011;29650;47.378;8.300;2024-02-28T12:10:46;22.65;;;12.10;;
43986;SDS011;29650;47.378;8.300;2024-02-28T12:13:17;19.90;;;12.02;;
43986;SDS011;29650;47.378;8.300;2024-02-28T12:15:44;20.70;;;11.45;;
43986;SDS011;29650;47.378;8.300;2024-02-28T12:18:12;26.92;;;12.52;;
43986;SDS011;29650;47.378;8.300;2024-02-28T12:20:41;22.30;;;12.13;;
43986;SDS011;29650;47.378;8.300;2024-02-28T12:23:08;23.70;;;12.65;;
43986;SDS011;29650;47.378;8.300;2024-02-28T12:25:36;22.27;;;11.98;;
43986;SDS011;29650;47.378;8.300;2024-02-28T12:30:38;22.20;;;11.65;;
43986;SDS011;29650;47.378;8.300;2024-02-28T12:33:07;18.65;;;11.30;;
43986;SDS011;29650;47.378;8.300;2024-02-28T12:35:34;22.73;;;11.63;;
43986;SDS011;29650;47.378;8.300;2024-02-28T12:38:02;18.83;;;12.07;;
43986;SDS011;29650;47.378;8.300;2024-02-28T12:40:29;23.48;;;11.70;;
43986;SDS011;29650;47.378;8.300;2024-02-28T12:42:57;24.17;;;12.25;;
43986;SDS011;29650;47.378;8.300;2024-02-28T12:45:24;22.23;;;12.75;;
43986;SDS011;29650;47.378;8.300;2024-02-28T12:47:51;24.98;;;12.43;;
43986;SDS011;29650;47.378;8.300;2024-02-28T12:50:21;22.75;;;13.52;;
43986;SDS011;29650;47.378;8.300;2024-02-28T12:52:49;24.33;;;13.00;;
43986;SDS011;29650;47.378;8.300;2024-02-28T12:57:45;22.13;;;12.20;;
43986;SDS011;29650;47.378;8.300;2024-02-28T13:00:14;23.38;;;12.50;;
43986;SDS011;29650;47.378;8.300;2024-02-28T13:02:41;25.50;;;13.18;;
43986;SDS011;29650;47.378;8.300;2024-02-28T13:05:09;21.33;;;12.35;;
43986;SDS011;29650;47.378;8.300;2024-02-28T13:07:38;25.40;;;13.75;;
43986;SDS011;29650;47.378;8.300;2024-02-28T13:10:05;23.77;;;12.85;;
43986;SDS011;29650;47.378;8.300;2024-02-28T13:12:34;23.10;;;12.20;;
43986;SDS011;29650;47.378;8.300;2024-02-28T13:15:01;22.83;;;13.25;;
43986;SDS011;29650;47.378;8.300;2024-02-28T13:17:31;24.95;;;13.18;;
43986;SDS011;29650;47.378;8.300;2024-02-28T13:19:58;26.42;;;13.50;;
43986;SDS011;29650;47.378;8.300;2024-02-28T13:22:25;22.05;;;13.48;;
43986;SDS011;29650;47.378;8.300;2024-02-28T13:24:52;25.35;;;13.05;;
43986;SDS011;29650;47.378;8.300;2024-02-28T13:27:19;22.73;;;12.82;;
43986;SDS011;29650;47.378;8.300;2024-02-28T13:29:46;23.45;;;13.45;;
43986;SDS011;29650;47.378;8.300;2024-02-28T13:32:13;26.60;;;12.75;;
43986;SDS011;29650;47.378;8.300;2024-02-28T13:34:42;22.55;;;12.45;;
43986;SDS011;29650;47.378;8.300;2024-02-28T13:37:09;22.75;;;12.10;;
43986;SDS011;29650;47.378;8.300;2024-02-28T13:39:36;22.67;;;11.85;;
43986;SDS011;29650;47.378;8.300;2024-02-28T13:42:02;20.88;;;11.52;;
43986;SDS011;29650;47.378;8.300;2024-02-28T13:44:31;21.92;;;12.30;;
43986;SDS011;29650;47.378;8.300;2024-02-28T13:46:59;22.75;;;12.38;;
43986;SDS011;29650;47.378;8.300;2024-02-28T13:49:26;21.25;;;12.23;;
43986;SDS011;29650;47.378;8.300;2024-02-28T13:51:54;23.20;;;12.45;;
43986;SDS011;29650;47.378;8.300;2024-02-28T13:54:21;24.30;;;12.50;;
43986;SDS011;29650;47.378;8.300;2024-02-28T13:56:48;20.98;;;12.45;;
43986;SDS011;29650;47.378;8.300;2024-02-28T13:59:15;25.90;;;12.20;;
43986;SDS011;29650;47.378;8.300;2024-02-28T14:01:42;22.52;;;12.88;;
43986;SDS011;29650;47.378;8.300;2024-02-28T14:04:10;22.23;;;11.57;;
43986;SDS011;29650;47.378;8.300;2024-02-28T14:06:37;21.67;;;11.77;;
43986;SDS011;29650;47.378;8.300;2024-02-28T14:09:05;22.15;;;11.82;;
43986;SDS011;29650;47.378;8.300;2024-02-28T14:11:32;25.48;;;13.50;;
43986;SDS011;29650;47.378;8.300;2024-02-28T14:13:59;20.70;;;11.25;;
43986;SDS011;29650;47.378;8.300;2024-02-28T14:16:26;21.42;;;11.77;;
43986;SDS011;29650;47.378;8.300;2024-02-28T14:18:53;21.27;;;11.93;;
43986;SDS011;29650;47.378;8.300;2024-02-28T14:21:20;20.67;;;11.98;;
43986;SDS011;29650;47.378;8.300;2024-02-28T14:23:49;18.92;;;10.93;;
43986;SDS011;29650;47.378;8.300;2024-02-28T14:26:18;19.70;;;11.02;;
43986;SDS011;29650;47.378;8.300;2024-02-28T14:28:45;22.73;;;12.65;;
43986;SDS011;29650;47.378;8.300;2024-02-28T14:31:12;17.80;;;11.10;;